• Join FlightAware (Why Join?)
  • Login
  • US Flag 
07:11PM EDT


 

Airport Tracker/Info


-or-


 

Live Flight TrackerFlight Track Log ✈ EGF4169 ✈ 11-Jun-2013 ✈ KAZO - KORD

Flight Track Log - Related Links

Times and Time Zones

All times are in EDT time to prevent confusion due to time zone crossing. See the EGF4169 flight status page for this flight to view local times or setup timezone preferences in your user account.

Time Position Orientation Groundspeed Altitude Reporting Facility
EDT Latitude Longitude Course Direction KTS MPH feet Rate Location/Type
03:51PM 42.2653 -85.5481 294° West 177 204 2,500  Level Chicago Center
03:52PM 42.3206 -85.5244 18° North 239 275 5,200 3,180 Climbing Chicago Center
03:53PM 42.3231 -85.7795 304° West  Level FlightAware Approximate
03:53PM 42.3611 -85.6125 302° West 240 276 9,100  Level Chicago Center
03:54PM 42.3521 -85.8542 304° West  Level FlightAware Approximate
03:54PM 42.3786 -85.7044 284° West 247 284 10,000  Level Chicago Center
03:55PM 42.3874 -85.9268 298° West  Level FlightAware Approximate
03:55PM 42.4022 -85.8064 287° West 272 313 10,300  Level Chicago Center
03:56PM 42.4178 -86.0033 294° West  Level FlightAware Approximate
03:56PM 42.4258 -85.9097 287° West 284 327 11,700  Level Chicago Center
03:57PM 42.4469 -86.0114 286° West 280 322 13,200 1,080 Climbing Chicago Center
03:58PM 42.4658 -86.1108 284° West 273 314 14,000 360 Climbing Chicago Center
03:59PM 42.4903 -86.2275 286° West 268 308 14,000  Level Chicago Center
04:00PM 42.5108 -86.3236 286° West 267 307 14,000  Level Chicago Center
04:01PM 42.5317 -86.4192 287° West 265 305 14,000  Level Chicago Center
04:02PM 42.5525 -86.5139 287° West 263 303 14,000 -420 Level Chicago Center
04:03PM 42.5728 -86.6094 286° West 262 302 13,200 -780 Descending Chicago Center
04:04PM 42.5972 -86.7022 290° West 263 303 12,400 -780 Descending Chicago Center
04:05PM 42.5833 -86.8103 260° West 269 310 11,600 -780 Descending Chicago Center
04:06PM 42.5456 -86.8994 240° Southwest 273 314 10,900 -780 Descending Chicago Center
04:07PM 42.5083 -86.9867 240° Southwest 269 310 10,000 -960 Descending Chicago Center
04:08PM 42.4700 -87.0728 239° Southwest 269 310 9,000 -540 Descending Chicago Center
04:09PM 42.4386 -87.1622 245° Southwest 264 304 8,900 -60 Descending Chicago Center
04:10PM 42.4150 -87.2575 251° West 268 308 8,900 -540 Level Chicago Center
04:11PM 42.3389 -87.3322 216° Southwest 285 328 7,800 -1,020 Descending Chicago Center
04:12PM 42.2686 -87.3917 212° Southwest 282 325 6,800 -900 Descending Chicago Center
04:13PM 42.2100 -87.4428 213° Southwest 256 295 6,000 -780 Descending Chicago Center
04:14PM 42.1486 -87.4939 212° Southwest 260 299 5,200 -720 Descending Chicago Center
04:16PM 42.0883 -87.5419 211° Southwest 257 296 4,600 -660 Descending Chicago Center
04:17PM 42.0481 -87.6078 231° Southwest 242 278 3,900 -780 Descending Chicago Center
04:18PM 42.0181 -87.7003 246° West 231 266 3,000 -900 Descending Chicago Center